sensor_id;sensor_type;location;lat;lon;timestamp;temperature;humidity
9383;DHT22;4731;49.708;10.816;2023-02-12T00:02:26;3.90;99.90
9383;DHT22;4731;49.708;10.816;2023-02-12T00:04:53;3.90;99.90
9383;DHT22;4731;49.708;10.816;2023-02-12T00:07:20;3.80;99.90
9383;DHT22;4731;49.708;10.816;2023-02-12T00:09:46;3.80;99.90
9383;DHT22;4731;49.708;10.816;2023-02-12T00:12:13;3.80;99.90
9383;DHT22;4731;49.708;10.816;2023-02-12T00:14:40;3.80;99.90
9383;DHT22;4731;49.708;10.816;2023-02-12T00:17:08;3.80;99.90
9383;DHT22;4731;49.708;10.816;2023-02-12T00:19:34;3.70;99.90
9383;DHT22;4731;49.708;10.816;2023-02-12T00:22:02;3.60;99.90
9383;DHT22;4731;49.708;10.816;2023-02-12T00:24:29;3.60;99.90
9383;DHT22;4731;49.708;10.816;2023-02-12T00:26:57;3.60;99.90
9383;DHT22;4731;49.708;10.816;2023-02-12T00:29:24;3.60;99.90
9383;DHT22;4731;49.708;10.816;2023-02-12T00:31:51;3.60;99.90
9383;DHT22;4731;49.708;10.816;2023-02-12T00:34:19;3.40;99.90
9383;DHT22;4731;49.708;10.816;2023-02-12T00:36:46;3.30;99.90
9383;DHT22;4731;49.708;10.816;2023-02-12T00:39:12;3.30;99.90
9383;DHT22;4731;49.708;10.816;2023-02-12T00:41:39;3.20;99.90
9383;DHT22;4731;49.708;10.816;2023-02-12T00:44:06;3.20;99.90
9383;DHT22;4731;49.708;10.816;2023-02-12T00:46:32;3.10;99.90
9383;DHT22;4731;49.708;10.816;2023-02-12T00:48:59;3.20;99.90
9383;DHT22;4731;49.708;10.816;2023-02-12T00:51:27;3.20;99.90
9383;DHT22;4731;49.708;10.816;2023-02-12T00:53:54;3.10;99.90
9383;DHT22;4731;49.708;10.816;2023-02-12T00:56:21;3.10;99.90
9383;DHT22;4731;49.708;10.816;2023-02-12T00:58:47;3.10;99.90
9383;DHT22;4731;49.708;10.816;2023-02-12T01:01:14;3.10;99.90
9383;DHT22;4731;49.708;10.816;2023-02-12T01:03:41;3.20;99.90
9383;DHT22;4731;49.708;10.816;2023-02-12T01:06:08;3.20;99.90
9383;DHT22;4731;49.708;10.816;2023-02-12T01:08:36;3.20;99.90
9383;DHT22;4731;49.708;10.816;2023-02-12T01:11:05;3.10;99.90
9383;DHT22;4731;49.708;10.816;2023-02-12T01:13:33;3.10;99.90
9383;DHT22;4731;49.708;10.816;2023-02-12T01:16:01;3.10;99.90
9383;DHT22;4731;49.708;10.816;2023-02-12T01:18:28;3.10;99.90
9383;DHT22;4731;49.708;10.816;2023-02-12T01:20:55;3.10;99.90
9383;DHT22;4731;49.708;10.816;2023-02-12T01:23:23;3.10;99.90
9383;DHT22;4731;49.708;10.816;2023-02-12T01:25:51;3.00;99.90
9383;DHT22;4731;49.708;10.816;2023-02-12T01:28:18;2.90;99.90
9383;DHT22;4731;49.708;10.816;2023-02-12T01:30:45;3.00;99.90
9383;DHT22;4731;49.708;10.816;2023-02-12T01:33:12;3.00;99.90
9383;DHT22;4731;49.708;10.816;2023-02-12T01:35:39;3.10;99.90
9383;DHT22;4731;49.708;10.816;2023-02-12T01:38:05;3.00;99.90
9383;DHT22;4731;49.708;10.816;2023-02-12T01:40:32;3.00;99.90
9383;DHT22;4731;49.708;10.816;2023-02-12T01:43:01;3.00;99.90
9383;DHT22;4731;49.708;10.816;2023-02-12T01:45:44;3.00;99.90
9383;DHT22;4731;49.708;10.816;2023-02-12T01:48:13;3.00;99.90
9383;DHT22;4731;49.708;10.816;2023-02-12T01:50:41;3.00;99.90
9383;DHT22;4731;49.708;10.816;2023-02-12T01:53:09;3.00;99.90
9383;DHT22;4731;49.708;10.816;2023-02-12T01:55:38;3.00;99.90
9383;DHT22;4731;49.708;10.816;2023-02-12T01:58:06;2.90;99.90
9383;DHT22;4731;49.708;10.816;2023-02-12T02:00:34;3.00;99.90
9383;DHT22;4731;49.708;10.816;2023-02-12T02:03:01;3.00;99.90
9383;DHT22;4731;49.708;10.816;2023-02-12T02:05:34;2.90;99.90
9383;DHT22;4731;49.708;10.816;2023-02-12T02:08:04;2.90;99.90
9383;DHT22;4731;49.708;10.816;2023-02-12T02:10:31;2.90;99.90
9383;DHT22;4731;49.708;10.816;2023-02-12T02:12:58;2.90;99.90
9383;DHT22;4731;49.708;10.816;2023-02-12T02:15:46;2.90;99.90
9383;DHT22;4731;49.708;10.816;2023-02-12T02:18:20;3.00;99.90
9383;DHT22;4731;49.708;10.816;2023-02-12T02:23:49;3.00;99.90
9383;DHT22;4731;49.708;10.816;2023-02-12T02:26:31;3.10;99.90
9383;DHT22;4731;49.708;10.816;2023-02-12T02:29:19;3.00;99.90
9383;DHT22;4731;49.708;10.816;2023-02-12T02:31:52;3.00;99.90
9383;DHT22;4731;49.708;10.816;2023-02-12T02:34:28;2.90;99.90
9383;DHT22;4731;49.708;10.816;2023-02-12T02:37:06;3.00;99.90
9383;DHT22;4731;49.708;10.816;2023-02-12T02:39:36;3.00;99.90
9383;DHT22;4731;49.708;10.816;2023-02-12T02:42:08;2.90;99.90
9383;DHT22;4731;49.708;10.816;2023-02-12T02:44:39;2.90;99.90
9383;DHT22;4731;49.708;10.816;2023-02-12T02:47:12;3.00;99.90
9383;DHT22;4731;49.708;10.816;2023-02-12T02:49:43;3.00;99.90
9383;DHT22;4731;49.708;10.816;2023-02-12T02:52:15;3.00;99.90
9383;DHT22;4731;49.708;10.816;2023-02-12T02:54:46;3.00;99.90
9383;DHT22;4731;49.708;10.816;2023-02-12T02:57:16;2.90;99.90
9383;DHT22;4731;49.708;10.816;2023-02-12T02:59:47;2.90;99.90
9383;DHT22;4731;49.708;10.816;2023-02-12T03:02:20;5.30;99.90
9383;DHT22;4731;49.708;10.816;2023-02-12T03:04:49;2.90;99.90
9383;DHT22;4731;49.708;10.816;2023-02-12T03:07:20;2.90;99.90
9383;DHT22;4731;49.708;10.816;2023-02-12T03:09:49;2.80;99.90
9383;DHT22;4731;49.708;10.816;2023-02-12T03:12:20;2.90;99.90
9383;DHT22;4731;49.708;10.816;2023-02-12T03:14:51;2.80;99.90
9383;DHT22;4731;49.708;10.816;2023-02-12T03:17:22;2.80;99.90
9383;DHT22;4731;49.708;10.816;2023-02-12T03:19:54;2.80;99.90
9383;DHT22;4731;49.708;10.816;2023-02-12T03:22:26;2.80;99.90
9383;DHT22;4731;49.708;10.816;2023-02-12T03:24:56;2.80;99.90
9383;DHT22;4731;49.708;10.816;2023-02-12T03:27:28;2.90;99.90
9383;DHT22;4731;49.708;10.816;2023-02-12T03:29:57;2.90;99.90
9383;DHT22;4731;49.708;10.816;2023-02-12T03:32:32;2.80;99.90
9383;DHT22;4731;49.708;10.816;2023-02-12T03:35:07;2.90;99.90
9383;DHT22;4731;49.708;10.816;2023-02-12T03:37:37;2.90;99.90
9383;DHT22;4731;49.708;10.816;2023-02-12T03:40:13;2.90;99.90
9383;DHT22;4731;49.708;10.816;2023-02-12T03:42:54;2.90;99.90
9383;DHT22;4731;49.708;10.816;2023-02-12T03:45:32;2.80;99.90
9383;DHT22;4731;49.708;10.816;2023-02-12T03:48:08;2.90;99.90
9383;DHT22;4731;49.708;10.816;2023-02-12T03:50:41;2.90;99.90
9383;DHT22;4731;49.708;10.816;2023-02-12T03:53:10;2.80;99.90
9383;DHT22;4731;49.708;10.816;2023-02-12T03:55:39;2.80;99.90
9383;DHT22;4731;49.708;10.816;2023-02-12T03:58:08;2.80;99.90
9383;DHT22;4731;49.708;10.816;2023-02-12T04:00:36;2.80;99.90
9383;DHT22;4731;49.708;10.816;2023-02-12T04:03:06;2.80;99.90
9383;DHT22;4731;49.708;10.816;2023-02-12T04:05:33;2.80;99.90
9383;DHT22;4731;49.708;10.816;2023-02-12T04:08:01;2.90;99.90
9383;DHT22;4731;49.708;10.816;2023-02-12T04:10:34;2.90;99.90
9383;DHT22;4731;49.708;10.816;2023-02-12T04:13:09;2.90;99.90
9383;DHT22;4731;49.708;10.816;2023-02-12T04:15:52;2.90;99.90
9383;DHT22;4731;49.708;10.816;2023-02-12T04:18:26;2.90;99.90
9383;DHT22;4731;49.708;10.816;2023-02-12T04:21:00;3.00;99.90
9383;DHT22;4731;49.708;10.816;2023-02-12T04:23:46;2.10;99.90
9383;DHT22;4731;49.708;10.816;2023-02-12T04:26:21;3.00;99.90
9383;DHT22;4731;49.708;10.816;2023-02-12T04:29:00;3.00;99.90
9383;DHT22;4731;49.708;10.816;2023-02-12T04:31:32;3.00;99.90
9383;DHT22;4731;49.708;10.816;2023-02-12T04:34:08;3.00;99.90
9383;DHT22;4731;49.708;10.816;2023-02-12T04:36:40;3.10;99.90
9383;DHT22;4731;49.708;10.816;2023-02-12T04:39:09;3.20;99.90
9383;DHT22;4731;49.708;10.816;2023-02-12T04:41:37;3.30;99.90
9383;DHT22;4731;49.708;10.816;2023-02-12T04:44:15;3.30;99.90
9383;DHT22;4731;49.708;10.816;2023-02-12T04:46:42;3.20;99.90
9383;DHT22;4731;49.708;10.816;2023-02-12T04:49:13;3.20;99.90
9383;DHT22;4731;49.708;10.816;2023-02-12T04:51:40;3.20;99.90
9383;DHT22;4731;49.708;10.816;2023-02-12T04:54:07;3.30;99.90
9383;DHT22;4731;49.708;10.816;2023-02-12T04:56:34;3.30;99.90
9383;DHT22;4731;49.708;10.816;2023-02-12T04:59:00;3.40;99.90
9383;DHT22;4731;49.708;10.816;2023-02-12T05:01:27;3.40;99.90
9383;DHT22;4731;49.708;10.816;2023-02-12T05:03:54;3.40;99.90
9383;DHT22;4731;49.708;10.816;2023-02-12T05:08:51;3.50;99.90
9383;DHT22;4731;49.708;10.816;2023-02-12T05:11:18;3.50;99.90
9383;DHT22;4731;49.708;10.816;2023-02-12T05:13:47;3.50;99.90
9383;DHT22;4731;49.708;10.816;2023-02-12T05:16:14;3.30;99.90
9383;DHT22;4731;49.708;10.816;2023-02-12T05:18:41;3.20;99.90
9383;DHT22;4731;49.708;10.816;2023-02-12T05:21:08;3.20;99.90
9383;DHT22;4731;49.708;10.816;2023-02-12T05:23:38;3.20;99.90
9383;DHT22;4731;49.708;10.816;2023-02-12T05:26:07;3.10;99.90
9383;DHT22;4731;49.708;10.816;2023-02-12T05:28:34;3.10;99.90
9383;DHT22;4731;49.708;10.816;2023-02-12T05:31:01;3.10;99.90
9383;DHT22;4731;49.708;10.816;2023-02-12T05:33:28;3.10;99.90
9383;DHT22;4731;49.708;10.816;2023-02-12T05:36:01;3.20;99.90
9383;DHT22;4731;49.708;10.816;2023-02-12T05:38:27;3.20;99.90
9383;DHT22;4731;49.708;10.816;2023-02-12T05:41:00;3.20;99.90
9383;DHT22;4731;49.708;10.816;2023-02-12T05:43:27;3.20;99.90
9383;DHT22;4731;49.708;10.816;2023-02-12T05:45:54;3.30;99.90
9383;DHT22;4731;49.708;10.816;2023-02-12T05:48:20;3.30;99.90
9383;DHT22;4731;49.708;10.816;2023-02-12T05:50:47;3.20;99.90
9383;DHT22;4731;49.708;10.816;2023-02-12T05:53:14;5.20;99.90
9383;DHT22;4731;49.708;10.816;2023-02-12T05:55:40;3.20;99.90
9383;DHT22;4731;49.708;10.816;2023-02-12T05:58:08;3.20;99.90
9383;DHT22;4731;49.708;10.816;2023-02-12T06:00:35;3.30;99.90
9383;DHT22;4731;49.708;10.816;2023-02-12T06:03:02;3.30;99.90
9383;DHT22;4731;49.708;10.816;2023-02-12T06:05:29;3.20;99.90
9383;DHT22;4731;49.708;10.816;2023-02-12T06:07:55;3.40;99.90
9383;DHT22;4731;49.708;10.816;2023-02-12T06:10:22;3.40;99.90
9383;DHT22;4731;49.708;10.816;2023-02-12T06:12:53;3.50;99.90
9383;DHT22;4731;49.708;10.816;2023-02-12T06:15:21;3.40;99.90
9383;DHT22;4731;49.708;10.816;2023-02-12T06:17:48;3.50;99.90
9383;DHT22;4731;49.708;10.816;2023-02-12T06:20:15;3.50;99.90
9383;DHT22;4731;49.708;10.816;2023-02-12T06:22:41;3.50;99.90
9383;DHT22;4731;49.708;10.816;2023-02-12T06:25:08;3.60;99.90
9383;DHT22;4731;49.708;10.816;2023-02-12T06:27:35;3.70;99.90
9383;DHT22;4731;49.708;10.816;2023-02-12T06:30:01;3.60;99.90
9383;DHT22;4731;49.708;10.816;2023-02-12T06:32:29;3.60;99.90
9383;DHT22;4731;49.708;10.816;2023-02-12T06:34:56;3.60;99.90
9383;DHT22;4731;49.708;10.816;2023-02-12T06:37:23;3.60;99.90
9383;DHT22;4731;49.708;10.816;2023-02-12T06:39:50;3.50;99.90
9383;DHT22;4731;49.708;10.816;2023-02-12T06:42:16;3.80;99.90
9383;DHT22;4731;49.708;10.816;2023-02-12T06:44:43;3.50;99.90
9383;DHT22;4731;49.708;10.816;2023-02-12T06:47:11;3.50;99.90
9383;DHT22;4731;49.708;10.816;2023-02-12T06:49:39;3.40;99.90
9383;DHT22;4731;49.708;10.816;2023-02-12T06:52:05;3.40;99.90
9383;DHT22;4731;49.708;10.816;2023-02-12T06:54:32;3.40;99.90
9383;DHT22;4731;49.708;10.816;2023-02-12T06:56:59;3.40;99.90
9383;DHT22;4731;49.708;10.816;2023-02-12T06:59:25;3.40;99.90
9383;DHT22;4731;49.708;10.816;2023-02-12T07:01:52;3.40;99.90
9383;DHT22;4731;49.708;10.816;2023-02-12T07:04:19;3.50;99.90
9383;DHT22;4731;49.708;10.816;2023-02-12T07:06:48;3.50;99.90
9383;DHT22;4731;49.708;10.816;2023-02-12T07:09:14;3.50;99.90
9383;DHT22;4731;49.708;10.816;2023-02-12T07:11:41;3.50;99.90
9383;DHT22;4731;49.708;10.816;2023-02-12T07:14:13;3.50;99.90
9383;DHT22;4731;49.708;10.816;2023-02-12T07:16:40;3.50;99.90
9383;DHT22;4731;49.708;10.816;2023-02-12T07:19:06;3.60;99.90
9383;DHT22;4731;49.708;10.816;2023-02-12T07:21:33;3.60;99.90
9383;DHT22;4731;49.708;10.816;2023-02-12T07:24:02;3.60;99.90
9383;DHT22;4731;49.708;10.816;2023-02-12T07:26:28;3.60;99.90
9383;DHT22;4731;49.708;10.816;2023-02-12T07:28:56;3.60;99.90
9383;DHT22;4731;49.708;10.816;2023-02-12T07:31:23;3.60;99.90
9383;DHT22;4731;49.708;10.816;2023-02-12T07:33:53;3.60;99.90
9383;DHT22;4731;49.708;10.816;2023-02-12T07:36:20;3.60;99.90
9383;DHT22;4731;49.708;10.816;2023-02-12T07:38:47;3.60;99.90
9383;DHT22;4731;49.708;10.816;2023-02-12T07:41:17;3.60;99.90
9383;DHT22;4731;49.708;10.816;2023-02-12T07:43:45;3.70;99.90
9383;DHT22;4731;49.708;10.816;2023-02-12T07:46:14;3.70;99.90
9383;DHT22;4731;49.708;10.816;2023-02-12T07:48:42;3.10;99.90
9383;DHT22;4731;49.708;10.816;2023-02-12T07:51:10;3.70;99.90
9383;DHT22;4731;49.708;10.816;2023-02-12T07:53:38;3.80;99.90
9383;DHT22;4731;49.708;10.816;2023-02-12T07:56:06;4.90;99.90
9383;DHT22;4731;49.708;10.816;2023-02-12T07:58:35;4.10;99.90
9383;DHT22;4731;49.708;10.816;2023-02-12T08:01:14;4.20;99.90
9383;DHT22;4731;49.708;10.816;2023-02-12T08:03:41;4.20;99.90
9383;DHT22;4731;49.708;10.816;2023-02-12T08:06:10;4.20;99.90
9383;DHT22;4731;49.708;10.816;2023-02-12T08:08:37;4.30;99.90
9383;DHT22;4731;49.708;10.816;2023-02-12T08:11:05;4.30;99.90
9383;DHT22;4731;49.708;10.816;2023-02-12T08:13:32;5.00;99.90
9383;DHT22;4731;49.708;10.816;2023-02-12T08:16:00;4.10;99.90
9383;DHT22;4731;49.708;10.816;2023-02-12T08:18:28;4.00;99.90
9383;DHT22;4731;49.708;10.816;2023-02-12T08:21:00;3.80;99.90
9383;DHT22;4731;49.708;10.816;2023-02-12T08:23:28;3.90;99.90
9383;DHT22;4731;49.708;10.816;2023-02-12T08:25:54;3.90;99.90
9383;DHT22;4731;49.708;10.816;2023-02-12T08:28:29;3.90;99.90
9383;DHT22;4731;49.708;10.816;2023-02-12T08:31:00;4.00;99.90
9383;DHT22;4731;49.708;10.816;2023-02-12T08:33:27;4.10;99.90
9383;DHT22;4731;49.708;10.816;2023-02-12T08:36:00;4.40;99.90
9383;DHT22;4731;49.708;10.816;2023-02-12T08:38:27;4.20;99.90
9383;DHT22;4731;49.708;10.816;2023-02-12T08:40:53;4.20;99.90
9383;DHT22;4731;49.708;10.816;2023-02-12T08:43:20;4.50;99.90
9383;DHT22;4731;49.708;10.816;2023-02-12T08:45:48;4.80;99.90
9383;DHT22;4731;49.708;10.816;2023-02-12T08:48:16;5.00;99.90
9383;DHT22;4731;49.708;10.816;2023-02-12T08:50:45;5.40;99.90
9383;DHT22;4731;49.708;10.816;2023-02-12T08:53:11;5.80;99.90
9383;DHT22;4731;49.708;10.816;2023-02-12T08:55:38;6.00;99.90
9383;DHT22;4731;49.708;10.816;2023-02-12T08:58:05;6.30;99.90
9383;DHT22;4731;49.708;10.816;2023-02-12T09:00:31;6.60;99.90
9383;DHT22;4731;49.708;10.816;2023-02-12T09:02:58;6.50;99.90
9383;DHT22;4731;49.708;10.816;2023-02-12T09:05:26;7.20;99.90
9383;DHT22;4731;49.708;10.816;2023-02-12T09:07:54;6.80;99.90
9383;DHT22;4731;49.708;10.816;2023-02-12T09:10:21;7.10;99.90
9383;DHT22;4731;49.708;10.816;2023-02-12T09:12:47;7.20;99.90
9383;DHT22;4731;49.708;10.816;2023-02-12T09:15:14;7.30;99.90
9383;DHT22;4731;49.708;10.816;2023-02-12T09:17:41;7.50;99.90
9383;DHT22;4731;49.708;10.816;2023-02-12T09:20:08;7.70;99.90
9383;DHT22;4731;49.708;10.816;2023-02-12T09:25:04;7.70;99.90
9383;DHT22;4731;49.708;10.816;2023-02-12T09:27:31;7.80;99.90
9383;DHT22;4731;49.708;10.816;2023-02-12T09:29:58;7.80;99.90
9383;DHT22;4731;49.708;10.816;2023-02-12T09:32:25;7.80;99.90
9383;DHT22;4731;49.708;10.816;2023-02-12T09:34:51;7.40;99.90
9383;DHT22;4731;49.708;10.816;2023-02-12T09:37:18;7.70;99.90
9383;DHT22;4731;49.708;10.816;2023-02-12T09:39:46;8.30;99.90
9383;DHT22;4731;49.708;10.816;2023-02-12T09:42:34;8.70;99.90
9383;DHT22;4731;49.708;10.816;2023-02-12T09:45:06;9.00;99.90
9383;DHT22;4731;49.708;10.816;2023-02-12T09:47:43;9.30;99.90
9383;DHT22;4731;49.708;10.816;2023-02-12T09:50:23;9.60;99.90
9383;DHT22;4731;49.708;10.816;2023-02-12T09:52:53;10.00;99.90
9383;DHT22;4731;49.708;10.816;2023-02-12T09:55:27;10.30;99.90
9383;DHT22;4731;49.708;10.816;2023-02-12T09:57:54;10.50;99.90
9383;DHT22;4731;49.708;10.816;2023-02-12T10:00:24;10.70;99.90
9383;DHT22;4731;49.708;10.816;2023-02-12T10:02:53;10.70;99.90
9383;DHT22;4731;49.708;10.816;2023-02-12T10:05:25;10.60;99.90
9383;DHT22;4731;49.708;10.816;2023-02-12T10:08:07;11.20;99.90
9383;DHT22;4731;49.708;10.816;2023-02-12T10:10:49;10.70;99.90
9383;DHT22;4731;49.708;10.816;2023-02-12T10:13:26;10.80;99.90
9383;DHT22;4731;49.708;10.816;2023-02-12T10:16:01;10.50;99.90
9383;DHT22;4731;49.708;10.816;2023-02-12T10:18:47;12.80;99.90
9383;DHT22;4731;49.708;10.816;2023-02-12T10:21:25;10.00;99.90
9383;DHT22;4731;49.708;10.816;2023-02-12T10:24:10;9.70;99.90
9383;DHT22;4731;49.708;10.816;2023-02-12T10:26:41;9.60;99.90
9383;DHT22;4731;49.708;10.816;2023-02-12T10:29:12;9.40;99.90
9383;DHT22;4731;49.708;10.816;2023-02-12T10:31:43;8.90;99.90
9383;DHT22;4731;49.708;10.816;2023-02-12T10:34:15;8.70;99.90
9383;DHT22;4731;49.708;10.816;2023-02-12T10:36:44;8.50;99.90
9383;DHT22;4731;49.708;10.816;2023-02-12T10:39:19;8.40;99.90
9383;DHT22;4731;49.708;10.816;2023-02-12T10:41:51;8.60;99.90
9383;DHT22;4731;49.708;10.816;2023-02-12T10:44:20;8.60;99.90
9383;DHT22;4731;49.708;10.816;2023-02-12T10:46:47;8.30;99.90
9383;DHT22;4731;49.708;10.816;2023-02-12T10:49:16;8.30;99.90
9383;DHT22;4731;49.708;10.816;2023-02-12T10:51:57;8.20;99.90
9383;DHT22;4731;49.708;10.816;2023-02-12T10:54:40;8.40;99.90
9383;DHT22;4731;49.708;10.816;2023-02-12T10:57:15;8.20;99.90
9383;DHT22;4731;49.708;10.816;2023-02-12T10:59:45;8.20;99.90
9383;DHT22;4731;49.708;10.816;2023-02-12T11:02:21;8.30;99.90
9383;DHT22;4731;49.708;10.816;2023-02-12T11:04:49;8.30;99.90
9383;DHT22;4731;49.708;10.816;2023-02-12T11:07:16;8.50;99.90
9383;DHT22;4731;49.708;10.816;2023-02-12T11:09:44;9.00;99.90
9383;DHT22;4731;49.708;10.816;2023-02-12T11:12:20;9.50;99.90
9383;DHT22;4731;49.708;10.816;2023-02-12T11:14:48;9.80;99.90
9383;DHT22;4731;49.708;10.816;2023-02-12T11:17:23;11.70;99.90
9383;DHT22;4731;49.708;10.816;2023-02-12T11:22:52;10.70;99.90
9383;DHT22;4731;49.708;10.816;2023-02-12T11:25:21;10.90;99.90
9383;DHT22;4731;49.708;10.816;2023-02-12T11:28:02;11.00;99.90
9383;DHT22;4731;49.708;10.816;2023-02-12T11:30:30;11.20;99.90
9383;DHT22;4731;49.708;10.816;2023-02-12T11:33:15;12.10;99.90
9383;DHT22;4731;49.708;10.816;2023-02-12T11:35:50;10.70;99.90
9383;DHT22;4731;49.708;10.816;2023-02-12T11:38:25;11.70;99.90
9383;DHT22;4731;49.708;10.816;2023-02-12T11:40:56;10.10;99.90
9383;DHT22;4731;49.708;10.816;2023-02-12T11:43:26;9.90;99.90
9383;DHT22;4731;49.708;10.816;2023-02-12T11:45:55;9.80;99.90
9383;DHT22;4731;49.708;10.816;2023-02-12T11:48:27;9.60;99.90
9383;DHT22;4731;49.708;10.816;2023-02-12T11:50:57;9.30;99.90
9383;DHT22;4731;49.708;10.816;2023-02-12T11:53:28;9.20;99.90
9383;DHT22;4731;49.708;10.816;2023-02-12T11:55:58;9.20;99.90
9383;DHT22;4731;49.708;10.816;2023-02-12T11:58:28;9.10;99.90
9383;DHT22;4731;49.708;10.816;2023-02-12T12:01:08;9.10;99.90
9383;DHT22;4731;49.708;10.816;2023-02-12T12:03:43;9.00;99.90
9383;DHT22;4731;49.708;10.816;2023-02-12T12:06:30;9.10;99.90
9383;DHT22;4731;49.708;10.816;2023-02-12T12:09:04;9.30;99.90
9383;DHT22;4731;49.708;10.816;2023-02-12T12:11:37;9.20;99.90
9383;DHT22;4731;49.708;10.816;2023-02-12T12:14:13;10.10;99.90
9383;DHT22;4731;49.708;10.816;2023-02-12T12:16:48;8.30;99.90
9383;DHT22;4731;49.708;10.816;2023-02-12T12:19:37;8.00;99.90
9383;DHT22;4731;49.708;10.816;2023-02-12T12:22:35;7.90;99.90
9383;DHT22;4731;49.708;10.816;2023-02-12T12:25:09;7.60;99.90
9383;DHT22;4731;49.708;10.816;2023-02-12T12:27:42;7.60;99.90
9383;DHT22;4731;49.708;10.816;2023-02-12T12:33:32;7.50;99.90
9383;DHT22;4731;49.708;10.816;2023-02-12T12:36:33;7.70;99.90
9383;DHT22;4731;49.708;10.816;2023-02-12T12:39:10;7.80;99.90
9383;DHT22;4731;49.708;10.816;2023-02-12T12:41:49;7.90;99.90
9383;DHT22;4731;49.708;10.816;2023-02-12T12:44:29;9.00;99.90
9383;DHT22;4731;49.708;10.816;2023-02-12T12:47:13;7.80;99.90
9383;DHT22;4731;49.708;10.816;2023-02-12T12:49:59;7.80;99.90
9383;DHT22;4731;49.708;10.816;2023-02-12T12:58:25;7.40;99.90
9383;DHT22;4731;49.708;10.816;2023-02-12T13:01:09;7.40;99.90
9383;DHT22;4731;49.708;10.816;2023-02-12T13:04:13;7.30;99.90
9383;DHT22;4731;49.708;10.816;2023-02-12T13:06:55;7.30;99.90
9383;DHT22;4731;49.708;10.816;2023-02-12T13:09:39;7.30;99.90
9383;DHT22;4731;49.708;10.816;2023-02-12T13:12:37;7.20;99.90
9383;DHT22;4731;49.708;10.816;2023-02-12T13:15:16;7.20;99.90
9383;DHT22;4731;49.708;10.816;2023-02-12T13:17:50;7.40;99.90
9383;DHT22;4731;49.708;10.816;2023-02-12T13:20:29;7.60;99.90
9383;DHT22;4731;49.708;10.816;2023-02-12T13:22:59;7.60;99.90
9383;DHT22;4731;49.708;10.816;2023-02-12T13:25:34;7.60;99.90
9383;DHT22;4731;49.708;10.816;2023-02-12T13:28:11;7.70;99.90
9383;DHT22;4731;49.708;10.816;2023-02-12T13:30:43;7.80;99.90
9383;DHT22;4731;49.708;10.816;2023-02-12T13:33:15;7.50;99.90
9383;DHT22;4731;49.708;10.816;2023-02-12T13:35:48;7.40;99.90
9383;DHT22;4731;49.708;10.816;2023-02-12T13:38:20;7.30;99.90
9383;DHT22;4731;49.708;10.816;2023-02-12T13:40:48;7.20;99.90
9383;DHT22;4731;49.708;10.816;2023-02-12T13:43:28;7.30;99.90
9383;DHT22;4731;49.708;10.816;2023-02-12T13:46:02;7.40;99.90
9383;DHT22;4731;49.708;10.816;2023-02-12T13:48:46;7.50;99.90
9383;DHT22;4731;49.708;10.816;2023-02-12T13:51:24;7.40;99.90
9383;DHT22;4731;49.708;10.816;2023-02-12T13:54:10;7.20;99.90
9383;DHT22;4731;49.708;10.816;2023-02-12T13:56:41;7.10;99.90
9383;DHT22;4731;49.708;10.816;2023-02-12T14:02:43;7.50;99.90
9383;DHT22;4731;49.708;10.816;2023-02-12T14:08:05;7.60;99.90
9383;DHT22;4731;49.708;10.816;2023-02-12T14:10:36;7.70;99.90
9383;DHT22;4731;49.708;10.816;2023-02-12T14:13:15;7.60;99.90
9383;DHT22;4731;49.708;10.816;2023-02-12T14:15:44;7.50;99.90
9383;DHT22;4731;49.708;10.816;2023-02-12T14:18:31;7.70;99.90
9383;DHT22;4731;49.708;10.816;2023-02-12T14:24:46;7.70;99.90
9383;DHT22;4731;49.708;10.816;2023-02-12T14:27:23;7.70;99.90
9383;DHT22;4731;49.708;10.816;2023-02-12T14:33:18;7.90;99.90
9383;DHT22;4731;49.708;10.816;2023-02-12T14:41:22;7.60;99.90
9383;DHT22;4731;49.708;10.816;2023-02-12T14:50:14;7.30;99.90
9383;DHT22;4731;49.708;10.816;2023-02-12T14:52:50;7.20;99.90
9383;DHT22;4731;49.708;10.816;2023-02-12T14:55:22;7.10;99.90
9383;DHT22;4731;49.708;10.816;2023-02-12T14:57:56;7.10;99.90
9383;DHT22;4731;49.708;10.816;2023-02-12T15:00:27;7.10;99.90
9383;DHT22;4731;49.708;10.816;2023-02-12T15:03:00;7.10;99.90
9383;DHT22;4731;49.708;10.816;2023-02-12T15:05:30;7.20;99.90
9383;DHT22;4731;49.708;10.816;2023-02-12T15:08:04;7.30;99.90
9383;DHT22;4731;49.708;10.816;2023-02-12T15:13:22;7.00;99.90
9383;DHT22;4731;49.708;10.816;2023-02-12T15:16:05;6.80;99.90
9383;DHT22;4731;49.708;10.816;2023-02-12T15:26:32;7.00;99.90
9383;DHT22;4731;49.708;10.816;2023-02-12T15:31:58;7.10;99.90
9383;DHT22;4731;49.708;10.816;2023-02-12T15:37:05;6.90;99.90
9383;DHT22;4731;49.708;10.816;2023-02-12T15:39:40;6.90;99.90
9383;DHT22;4731;49.708;10.816;2023-02-12T15:47:44;6.80;99.90
9383;DHT22;4731;49.708;10.816;2023-02-12T15:55:36;6.90;99.90
9383;DHT22;4731;49.708;10.816;2023-02-12T15:58:22;7.00;99.90
9383;DHT22;4731;49.708;10.816;2023-02-12T16:15:30;6.50;99.90
9383;DHT22;4731;49.708;10.816;2023-02-12T16:20:31;6.60;99.90
9383;DHT22;4731;49.708;10.816;2023-02-12T16:22:58;6.50;99.90
9383;DHT22;4731;49.708;10.816;2023-02-12T16:25:28;6.50;99.90
9383;DHT22;4731;49.708;10.816;2023-02-12T16:27:57;6.40;99.90
9383;DHT22;4731;49.708;10.816;2023-02-12T16:30:27;6.20;99.90
9383;DHT22;4731;49.708;10.816;2023-02-12T16:32:55;6.20;99.90
9383;DHT22;4731;49.708;10.816;2023-02-12T16:35:28;6.10;99.90
9383;DHT22;4731;49.708;10.816;2023-02-12T16:38:02;6.10;99.90
9383;DHT22;4731;49.708;10.816;2023-02-12T16:40:34;6.10;99.90
9383;DHT22;4731;49.708;10.816;2023-02-12T16:43:20;6.10;99.90
9383;DHT22;4731;49.708;10.816;2023-02-12T16:45:48;7.90;99.90
9383;DHT22;4731;49.708;10.816;2023-02-12T16:48:19;6.10;99.90
9383;DHT22;4731;49.708;10.816;2023-02-12T16:50:51;6.20;99.90
9383;DHT22;4731;49.708;10.816;2023-02-12T16:53:25;6.10;99.90
9383;DHT22;4731;49.708;10.816;2023-02-12T16:55:53;6.10;99.90
9383;DHT22;4731;49.708;10.816;2023-02-12T16:58:20;6.00;99.90
9383;DHT22;4731;49.708;10.816;2023-02-12T17:00:47;6.00;99.90
9383;DHT22;4731;49.708;10.816;2023-02-12T17:03:15;6.40;99.90
9383;DHT22;4731;49.708;10.816;2023-02-12T17:05:42;6.00;99.90
9383;DHT22;4731;49.708;10.816;2023-02-12T17:08:11;5.80;99.90
9383;DHT22;4731;49.708;10.816;2023-02-12T17:10:38;5.80;99.90
9383;DHT22;4731;49.708;10.816;2023-02-12T17:13:07;5.80;99.90
9383;DHT22;4731;49.708;10.816;2023-02-12T17:15:39;5.60;99.90
9383;DHT22;4731;49.708;10.816;2023-02-12T17:18:08;8.40;99.90
9383;DHT22;4731;49.708;10.816;2023-02-12T17:20:37;5.60;99.90
9383;DHT22;4731;49.708;10.816;2023-02-12T17:23:05;5.50;99.90
9383;DHT22;4731;49.708;10.816;2023-02-12T17:25:32;5.40;99.90
9383;DHT22;4731;49.708;10.816;2023-02-12T17:28:00;5.40;99.90
9383;DHT22;4731;49.708;10.816;2023-02-12T17:30:28;5.20;99.90
9383;DHT22;4731;49.708;10.816;2023-02-12T17:32:57;5.00;99.90
9383;DHT22;4731;49.708;10.816;2023-02-12T17:35:23;4.90;99.90
9383;DHT22;4731;49.708;10.816;2023-02-12T17:40:17;4.70;99.90
9383;DHT22;4731;49.708;10.816;2023-02-12T17:42:44;4.60;99.90
9383;DHT22;4731;49.708;10.816;2023-02-12T17:45:11;4.60;99.90
9383;DHT22;4731;49.708;10.816;2023-02-12T17:47:39;4.40;99.90
9383;DHT22;4731;49.708;10.816;2023-02-12T17:50:07;4.40;99.90
9383;DHT22;4731;49.708;10.816;2023-02-12T17:52:34;4.30;99.90
9383;DHT22;4731;49.708;10.816;2023-02-12T17:55:01;4.20;99.90
9383;DHT22;4731;49.708;10.816;2023-02-12T17:57:28;4.10;99.90